EW3857 Weather Reports


Display with metric or nautical units.
time (UTC)temp
F
wind
direction
speed
MPH
gust
MPH
rain 1hr
in
rain 24hr
in
rain mn
in
humidity
%
barometer
mb
20210922012405 75 0.0 0.0 0.00 0.10 0.10 43 1017.5
20210922011428 75 0 1.0 2.0 0.00 0.10 0.10 43 1017.3
20210922010404 75 0.0 0.0 0.00 0.10 0.10 42 1017.3
20210922005428 76 0.0 0.0 0.00 0.10 0.10 41 1017.1
20210922003916 76 0.0 0.0 0.00 0.10 0.10 41 1017.0
20210922002940 76 0.0 0.0 0.00 0.10 0.10 39 1017.0
20210922001916 77 270 0.0 1.0 0.00 0.10 0.10 39 1016.9
20210922000941 77 0.0 1.0 0.00 0.10 0.10 37 1016.8
20210921235916 77 270 0.0 1.0 0.00 0.10 0.10 37 1016.9
20210921234940 77 270 0.0 2.0 0.00 0.10 0.10 34 1016.8
20210921233915 78 270 0.0 2.0 0.00 0.10 0.10 32 1016.6
20210921232940 79 0.0 1.0 0.00 0.10 0.10 30 1016.4
20210921231404 80 270 0.0 1.0 0.00 0.10 0.10 28 1016.4
20210921230404 80 0.0 0.0 0.00 0.10 0.10 25 1016.2
20210921225427 80 0.0 0.0 0.00 0.10 0.10 24 1016.2
20210921224452 81 0.0 0.0 0.00 0.10 0.10 20 1016.1
20210921223429 81 0.0 0.0 0.00 0.10 0.10 20 1015.9
20210921222452 81 0.0 0.0 0.00 0.10 0.10 20 1016.2
20210921221428 81 0.0 0.0 0.00 0.10 0.10 21 1015.9
20210921220052 81 0.0 0.0 0.00 0.10 0.10 22 1016.2
20210921214940 81 0 0.0 1.0 0.00 0.10 0.10 23 1016.1
20210921213916 81 0.0 0.0 0.00 0.10 0.10 21 1016.2
20210921212940 81 0.0 0.0 0.00 0.10 0.10 18 1016.4
20210921211916 81 0.0 0.0 0.00 0.11 0.10 16 1016.6
20210921210939 82 0.0 0.0 0.00 0.11 0.10 15 1016.5
20210921205916 82 0.0 0.0 0.00 0.11 0.10 16 1016.4
20210921204851 82 0.0 1.0 0.00 0.11 0.10 16 1016.7
20210921203404 83 0.0 0.0 0.00 0.11 0.10 17 1016.6
20210921202404 82 45 1.0 3.0 0.00 0.11 0.10 18 1016.7
20210921201427 81 45 0.0 3.0 0.00 0.11 0.10 19 1016.9
20210921200451 81 45 2.0 3.0 0.00 0.11 0.10 18 1016.9
20210921195428 82 0.0 0.0 0.00 0.11 0.10 17 1017.1
20210921194404 83 0.0 0.0 0.00 0.11 0.10 18 1017.1
20210921193427 82 0.0 0.0 0.00 0.11 0.10 20 1017.3
20210921191915 81 90 0.0 2.0 0.00 0.12 0.10 25 1017.4
20210921190940 81 0.0 0.0 0.00 0.20 0.10 27 1017.6
20210921185916 80 0.0 1.0 0.00 0.22 0.10 29 1017.7
20210921184939 79 45 0.0 1.0 0.00 0.22 0.10 31 1018.0
20210921183916 78 135 0.0 2.0 0.00 0.22 0.10 33 1018.2
20210921182939 78 45 0.0 2.0 0.01 0.22 0.10 34 1018.3
20210921181915 78 45 1.0 2.0 0.05 0.22 0.10 36 1018.4
20210921180939 77 0 1.0 2.0 0.05 0.22 0.10 39 1018.7
20210921175404 77 0.0 1.0 0.07 0.22 0.10 41 1019.0
20210921174404 77 135 0.0 1.0 0.07 0.22 0.10 42 1019.1
20210921173427 76 135 1.0 4.0 0.08 0.22 0.10 41 1019.3
20210921172403 76 0.0 0.0 0.08 0.21 0.09 42 1019.3
20210921171428 77 225 1.0 3.0 0.03 0.20 0.04 41 1019.7
20210921170404 77 0.0 0.0 0.03 0.20 0.04 41 1019.7
20210921165427 77 0.0 0.0 0.02 0.18 0.03 41 1019.7
20210921163428 77 0.0 0.0 0.02 0.18 0.03 40 1019.6
20210921161915 76 0.0 0.0 0.00 0.16 0.01 39 1019.7
20210921160939 76 0.0 0.0 0.00 0.16 0.01 38 1020.0
20210921155915 76 0 0.0 1.0 0.00 0.20 0.01 37 1019.9
20210921154940 76 315 0.0 1.0 0.00 0.20 0.01 37 1019.9
20210921153915 76 315 0.0 1.0 0.00 0.20 0.01 36 1019.9
20210921152940 76 0.0 0.0 0.00 0.20 0.01 37 1019.9
20210921151404 75 0.0 0.0 0.00 0.20 0.01 37 1019.9
20210921150403 75 0 2.0 3.0 0.00 0.20 0.01 37 1019.9
20210921145427 75 45 3.0 4.0 0.00 0.20 0.01 37 1019.8
20210921144404 75 0 3.0 4.0 0.00 0.20 0.01 37 1019.7
20210921143427 75 45 3.0 3.0 0.00 0.20 0.01 36 1019.8
20210921142404 75 45 3.0 4.0 0.00 0.20 0.01 37 1019.7
20210921141427 75 0.0 0.0 0.00 0.20 0.01 39 1019.7
20210921135915 75 0 0.0 2.0 0.00 0.20 0.01 39 1019.6
20210921134940 74 90 0.0 2.0 0.00 0.20 0.01 40 1019.5
20210921133916 74 45 0.0 1.0 0.00 0.20 0.01 41 1019.5
20210921132939 74 135 3.0 3.0 0.00 0.20 0.01 42 1019.3
20210921131915 73 90 0.0 3.0 0.00 0.20 0.01 42 1019.5
20210921130939 73 135 2.0 4.0 0.00 0.20 0.01 43 1019.2
20210921125915 73 90 0.0 1.0 0.00 0.20 0.01 44 1019.2
20210921124851 73 135 1.0 4.0 0.00 0.20 0.01 44 1019.1
20210921123428 73 90 1.0 2.0 0.00 0.20 0.01 44 1019.3
20210921121915 73 90 1.0 3.0 0.00 0.33 0.01 44 1019.2
20210921120939 73 90 0.0 1.0 0.00 0.49 0.01 45 1019.3
20210921115915 73 135 2.0 4.0 0.01 0.49 0.01 45 1019.2
20210921114939 73 0.0 1.0 0.01 0.49 0.01 45 1019.1
20210921113915 73 90 3.0 5.0 0.01 0.50 0.01 45 1019.0
20210921112851 73 90 2.0 5.0 0.01 0.50 0.01 45 1018.9
20210921111427 73 0.0 0.0 0.01 0.51 0.01 45 1018.7
20210921110452 73 45 3.0 4.0 0.01 0.53 0.01 45 1018.6
20210921105427 73 45 0.0 1.0 0.00 0.51 0.00 45 1018.7
20210921104403 73 0.0 0.0 0.00 0.53 0.00 45 1018.5
20210921103427 73 90 0.0 1.0 0.00 0.53 0.00 44 1018.3
20210921102403 73 45 0.0 2.0 0.00 0.53 0.00 44 1018.2
20210921101427 73 90 0.0 1.0 0.00 0.53 0.00 44 1018.0
20210921095904 73 45 1.0 3.0 0.00 0.53 0.00 44 1017.9
20210921094903 73 45 0.0 5.0 0.00 0.53 0.00 44 1017.9
20210921094303 73 45 2.0 4.0 0.00 0.53 0.00 43 1017.9
20210921092940 73 45 3.0 6.0 0.00 0.53 0.00 43 1017.7
20210921091916 74 90 0.0 3.0 0.00 0.53 0.00 43 1017.8
20210921090940 74 90 0.0 2.0 0.00 0.53 0.00 42 1017.7
20210921085916 74 0.0 1.0 0.00 0.53 0.00 42 1017.7
20210921084940 74 0.0 1.0 0.00 0.53 0.00 42 1017.8
20210921083405 74 90 0.0 2.0 0.00 0.53 0.00 42 1017.6
20210921082405 74 90 0.0 2.0 0.00 0.53 0.00 41 1017.6
20210921081428 74 0.0 1.0 0.00 0.53 0.00 41 1017.6
20210921080405 74 0.0 0.0 0.00 0.53 0.00 41 1017.6
20210921075428 74 90 2.0 5.0 0.00 0.54 0.00 41 1017.7
20210921074404 74 90 1.0 2.0 0.00 0.55 0.00 41 1017.7
20210921073428 74 90 0.0 2.0 0.00 0.57 0.00 41 1017.7
20210921071916 74 90 3.0 7.0 0.00 0.59 0.00 41 1017.6
20210921070940 75 90 0.0 2.0 0.00 0.59 0.00 41 1017.5
20210921065916 74 135 5.0 7.0 0.00 0.59 0.00 41 1017.6
20210921064941 74 135 1.0 3.0 0.00 0.59 0.00 40 1017.5
20210921063916 74 135 3.0 4.0 0.00 0.59 0.00 40 1017.4
20210921062940 74 135 3.0 5.0 0.00 0.59 0.00 40 1017.5
20210921061921 74 135 6.0 7.0 0.00 0.59 0.00 40 1017.4
20210921060940 74 135 3.0 5.0 0.00 0.59 0.00 40 1017.5
20210921055405 74 135 2.0 5.0 0.00 0.59 0.00 40 1017.5
20210921054404 74 135 0.0 2.0 0.00 0.59 0.00 40 1017.7
20210921053428 74 135 3.0 6.0 0.00 0.59 0.00 40 1017.7
20210921052404 74 135 3.0 6.0 0.00 0.59 0.00 40 1017.6
20210921051428 74 135 7.0 9.0 0.00 0.59 0.00 40 1017.6
20210921050452 74 180 7.0 9.0 0.00 0.59 0.59 41 1017.5
20210921045429 74 135 3.0 5.0 0.00 0.59 0.59 40 1017.5
20210921043916 74 180 3.0 4.0 0.00 0.59 0.59 39 1017.7
20210921042941 74 135 3.0 5.0 0.00 0.59 0.59 39 1017.7
20210921041917 74 135 4.0 7.0 0.00 0.59 0.59 40 1017.8
20210921040945 74 135 6.0 11.0 0.00 0.60 0.59 41 1017.8
20210921035916 74 135 2.0 6.0 0.00 0.61 0.59 40 1017.9
20210921034940 74 135 2.0 5.0 0.00 0.62 0.59 40 1018.0
20210921033916 74 135 6.0 9.0 0.00 0.64 0.59 39 1018.0
20210921032940 74 135 4.0 5.0 0.00 0.67 0.59 40 1018.4
20210921031405 74 90 0.0 2.0 0.00 0.67 0.59 39 1018.1
20210921030405 74 135 2.0 4.0 0.00 0.68 0.59 39 1018.2
20210921025428 74 135 3.0 6.0 0.00 0.68 0.59 39 1018.3
20210921024404 74 90 3.0 8.0 0.00 0.68 0.59 39 1018.3
20210921023429 74 90 0.0 3.0 0.00 0.68 0.59 39 1018.2
20210921022405 74 0.0 2.0 0.00 0.68 0.59 39 1018.0
20210921021429 74 90 2.0 3.0 0.00 0.68 0.59 39 1018.3
20210921015428 74 90 3.0 6.0 0.00 0.68 0.59 38 1018.2
20210921013917 74 90 0.0 3.0 0.00 0.68 0.59 38 1018.2